Terminal Aerodrome Forecast
Issued by NWS Shreveport, LA

Home | Current Version | Previous Version | Text Only | Print | Product List | Glossary On
Versions: 1 2 3 4 5 6 7 8 9 10 11 12 13
327
FTUS44 KSHV 041740
TAFLFK
TAF
KLFK 041740Z 0418/0518 32009KT P6SM SKC
     FM042000 30009G16KT P6SM SCT045
     FM050000 29005KT P6SM SKC
     FM050300 VRB03KT P6SM SKC
     FM051500 02007KT P6SM SKC=

USA.gov is the U.S. government's official web portal to all federal, state and local government web resources and services.